sensor_id;sensor_type;location;lat;lon;timestamp;pressure;altitude;pressure_sealevel;temperature;humidity
52625;BME280;38519;52.540;13.410;2023-11-19T00:02:07;45798.16;;;-146.17;100.00
52625;BME280;38519;52.540;13.410;2023-11-19T00:04:36;45792.25;;;-146.17;100.00
52625;BME280;38519;52.540;13.410;2023-11-19T00:07:02;45756.66;;;-146.17;100.00
52625;BME280;38519;52.540;13.410;2023-11-19T00:09:30;45786.31;;;-146.17;100.00
52625;BME280;38519;52.540;13.410;2023-11-19T00:11:55;45780.38;;;-146.17;100.00
52625;BME280;38519;52.540;13.410;2023-11-19T00:14:21;45790.25;;;-146.17;100.00
52625;BME280;38519;52.540;13.410;2023-11-19T00:16:46;45806.06;;;-146.17;100.00
52625;BME280;38519;52.540;13.410;2023-11-19T00:19:12;45754.69;;;-146.17;100.00
52625;BME280;38519;52.540;13.410;2023-11-19T00:21:38;45802.13;;;-146.17;100.00
52625;BME280;38519;52.540;13.410;2023-11-19T00:24:03;45778.41;;;-146.17;100.00
52625;BME280;38519;52.540;13.410;2023-11-19T00:26:29;45810.03;;;-146.17;100.00
52625;BME280;38519;52.540;13.410;2023-11-19T00:28:55;45784.34;;;-146.17;100.00
52625;BME280;38519;52.540;13.410;2023-11-19T00:31:21;45742.84;;;-146.17;100.00
52625;BME280;38519;52.540;13.410;2023-11-19T00:33:46;45788.28;;;-146.17;100.00
52625;BME280;38519;52.540;13.410;2023-11-19T00:36:12;45732.94;;;-146.17;100.00
52625;BME280;38519;52.540;13.410;2023-11-19T00:38:38;45770.50;;;-146.17;100.00
52625;BME280;38519;52.540;13.410;2023-11-19T00:41:04;45746.78;;;-146.17;100.00
52625;BME280;38519;52.540;13.410;2023-11-19T00:43:30;45782.38;;;-146.17;100.00
52625;BME280;38519;52.540;13.410;2023-11-19T00:45:57;45780.38;;;-146.17;100.00
52625;BME280;38519;52.540;13.410;2023-11-19T00:48:22;45778.41;;;-146.17;100.00
52625;BME280;38519;52.540;13.410;2023-11-19T00:50:51;45750.75;;;-146.17;100.00
52625;BME280;38519;52.540;13.410;2023-11-19T00:53:17;45756.66;;;-146.17;100.00
52625;BME280;38519;52.540;13.410;2023-11-19T00:55:43;45766.56;;;-146.17;100.00
52625;BME280;38519;52.540;13.410;2023-11-19T00:58:08;45770.50;;;-146.17;100.00
52625;BME280;38519;52.540;13.410;2023-11-19T01:00:34;45782.38;;;-146.17;100.00
52625;BME280;38519;52.540;13.410;2023-11-19T01:03:00;45760.63;;;-146.17;100.00
52625;BME280;38519;52.540;13.410;2023-11-19T01:05:25;45770.50;;;-146.17;100.00
52625;BME280;38519;52.540;13.410;2023-11-19T01:07:51;45766.56;;;-146.17;100.00
52625;BME280;38519;52.540;13.410;2023-11-19T01:10:19;45780.38;;;-146.17;100.00
52625;BME280;38519;52.540;13.410;2023-11-19T01:12:44;45772.47;;;-146.17;100.00
52625;BME280;38519;52.540;13.410;2023-11-19T01:15:10;45788.28;;;-146.17;100.00
52625;BME280;38519;52.540;13.410;2023-11-19T01:17:39;45770.50;;;-146.17;100.00
52625;BME280;38519;52.540;13.410;2023-11-19T01:20:05;45754.69;;;-146.17;100.00
52625;BME280;38519;52.540;13.410;2023-11-19T01:22:32;45746.78;;;-146.17;100.00
52625;BME280;38519;52.540;13.410;2023-11-19T01:24:57;45734.94;;;-146.17;100.00
52625;BME280;38519;52.540;13.410;2023-11-19T01:27:23;45748.75;;;-146.17;100.00
52625;BME280;38519;52.540;13.410;2023-11-19T01:29:49;45730.97;;;-146.17;100.00
52625;BME280;38519;52.540;13.410;2023-11-19T01:32:15;45796.19;;;-146.17;100.00
52625;BME280;38519;52.540;13.410;2023-11-19T01:34:40;45738.88;;;-146.17;100.00
52625;BME280;38519;52.540;13.410;2023-11-19T01:37:06;45762.59;;;-146.17;100.00
52625;BME280;38519;52.540;13.410;2023-11-19T01:39:34;45738.88;;;-146.17;100.00
52625;BME280;38519;52.540;13.410;2023-11-19T01:42:00;45774.47;;;-146.17;100.00
52625;BME280;38519;52.540;13.410;2023-11-19T01:44:25;45750.75;;;-146.17;100.00
52625;BME280;38519;52.540;13.410;2023-11-19T01:46:50;45758.66;;;-146.17;100.00
52625;BME280;38519;52.540;13.410;2023-11-19T01:49:17;45766.56;;;-146.17;100.00
52625;BME280;38519;52.540;13.410;2023-11-19T01:51:43;45740.84;;;-146.17;100.00
52625;BME280;38519;52.540;13.410;2023-11-19T01:54:09;45736.91;;;-146.17;100.00
52625;BME280;38519;52.540;13.410;2023-11-19T01:56:35;45764.56;;;-146.17;100.00
52625;BME280;38519;52.540;13.410;2023-11-19T01:59:01;45756.66;;;-146.17;100.00
52625;BME280;38519;52.540;13.410;2023-11-19T02:01:27;45754.69;;;-146.17;100.00
52625;BME280;38519;52.540;13.410;2023-11-19T02:03:52;45766.56;;;-146.17;100.00
52625;BME280;38519;52.540;13.410;2023-11-19T02:06:18;45752.72;;;-146.17;100.00
52625;BME280;38519;52.540;13.410;2023-11-19T02:08:43;45766.56;;;-146.17;100.00
52625;BME280;38519;52.540;13.410;2023-11-19T02:11:09;45762.59;;;-146.17;100.00
52625;BME280;38519;52.540;13.410;2023-11-19T02:13:34;45766.56;;;-146.17;100.00
52625;BME280;38519;52.540;13.410;2023-11-19T02:16:01;45770.50;;;-146.17;100.00
52625;BME280;38519;52.540;13.410;2023-11-19T02:18:27;45770.50;;;-146.17;100.00
52625;BME280;38519;52.540;13.410;2023-11-19T02:20:53;45758.66;;;-146.17;100.00
52625;BME280;38519;52.540;13.410;2023-11-19T02:23:19;45756.66;;;-146.17;100.00
52625;BME280;38519;52.540;13.410;2023-11-19T02:28:17;45748.75;;;-146.17;100.00
52625;BME280;38519;52.540;13.410;2023-11-19T02:30:43;45730.97;;;-146.17;100.00
52625;BME280;38519;52.540;13.410;2023-11-19T02:33:09;45742.84;;;-146.17;100.00
52625;BME280;38519;52.540;13.410;2023-11-19T02:35:34;45764.56;;;-146.17;100.00
52625;BME280;38519;52.540;13.410;2023-11-19T02:38:00;45744.81;;;-146.17;100.00
52625;BME280;38519;52.540;13.410;2023-11-19T02:40:26;45768.53;;;-146.17;100.00
52625;BME280;38519;52.540;13.410;2023-11-19T02:42:52;45756.66;;;-146.17;100.00
52625;BME280;38519;52.540;13.410;2023-11-19T02:45:19;45748.75;;;-146.17;100.00
52625;BME280;38519;52.540;13.410;2023-11-19T02:47:47;45770.50;;;-146.17;100.00
52625;BME280;38519;52.540;13.410;2023-11-19T02:50:19;45734.94;;;-146.17;100.00
52625;BME280;38519;52.540;13.410;2023-11-19T02:52:53;45758.66;;;-146.17;100.00
52625;BME280;38519;52.540;13.410;2023-11-19T02:55:19;45738.88;;;-146.17;100.00
52625;BME280;38519;52.540;13.410;2023-11-19T02:57:45;45758.66;;;-146.17;100.00
52625;BME280;38519;52.540;13.410;2023-11-19T03:00:15;45758.66;;;-146.17;100.00
52625;BME280;38519;52.540;13.410;2023-11-19T03:02:41;45746.78;;;-146.17;100.00
52625;BME280;38519;52.540;13.410;2023-11-19T03:05:14;45750.75;;;-146.17;100.00
52625;BME280;38519;52.540;13.410;2023-11-19T03:07:43;45750.75;;;-146.17;100.00
52625;BME280;38519;52.540;13.410;2023-11-19T03:10:11;45748.75;;;-146.17;100.00
52625;BME280;38519;52.540;13.410;2023-11-19T03:12:40;45723.06;;;-146.17;100.00
52625;BME280;38519;52.540;13.410;2023-11-19T03:15:06;45748.75;;;-146.17;100.00
52625;BME280;38519;52.540;13.410;2023-11-19T03:17:32;45772.47;;;-146.17;100.00
52625;BME280;38519;52.540;13.410;2023-11-19T03:19:58;45734.94;;;-146.17;100.00
52625;BME280;38519;52.540;13.410;2023-11-19T03:22:23;45742.84;;;-146.17;100.00
52625;BME280;38519;52.540;13.410;2023-11-19T03:24:52;45764.56;;;-146.17;100.00
52625;BME280;38519;52.540;13.410;2023-11-19T03:27:17;45760.63;;;-146.17;100.00
52625;BME280;38519;52.540;13.410;2023-11-19T03:29:43;45768.53;;;-146.17;100.00
52625;BME280;38519;52.540;13.410;2023-11-19T03:32:08;45732.94;;;-146.17;100.00
52625;BME280;38519;52.540;13.410;2023-11-19T03:34:34;45746.78;;;-146.17;100.00
52625;BME280;38519;52.540;13.410;2023-11-19T03:36:59;45758.66;;;-146.17;100.00
52625;BME280;38519;52.540;13.410;2023-11-19T03:39:24;45734.94;;;-146.17;100.00
52625;BME280;38519;52.540;13.410;2023-11-19T03:41:51;45770.50;;;-146.17;100.00
52625;BME280;38519;52.540;13.410;2023-11-19T03:44:17;45756.66;;;-146.17;100.00
52625;BME280;38519;52.540;13.410;2023-11-19T03:46:43;45790.25;;;-146.17;100.00
52625;BME280;38519;52.540;13.410;2023-11-19T03:49:08;45758.66;;;-146.17;100.00
52625;BME280;38519;52.540;13.410;2023-11-19T03:51:33;45756.66;;;-146.17;100.00
52625;BME280;38519;52.540;13.410;2023-11-19T03:54:00;45766.56;;;-146.17;100.00
52625;BME280;38519;52.540;13.410;2023-11-19T03:56:26;45758.66;;;-146.17;100.00
52625;BME280;38519;52.540;13.410;2023-11-19T03:58:53;45768.53;;;-146.17;100.00
52625;BME280;38519;52.540;13.410;2023-11-19T04:01:19;45788.28;;;-146.17;100.00
52625;BME280;38519;52.540;13.410;2023-11-19T04:03:45;45768.53;;;-146.17;100.00
52625;BME280;38519;52.540;13.410;2023-11-19T04:06:10;45760.63;;;-146.17;100.00
52625;BME280;38519;52.540;13.410;2023-11-19T04:08:35;45784.34;;;-146.17;100.00
52625;BME280;38519;52.540;13.410;2023-11-19T04:11:04;45780.38;;;-146.17;100.00
52625;BME280;38519;52.540;13.410;2023-11-19T04:13:30;45782.38;;;-146.17;100.00
52625;BME280;38519;52.540;13.410;2023-11-19T04:15:55;45778.41;;;-146.17;100.00
52625;BME280;38519;52.540;13.410;2023-11-19T04:18:21;45788.28;;;-146.17;100.00
52625;BME280;38519;52.540;13.410;2023-11-19T04:20:46;45790.25;;;-146.17;100.00
52625;BME280;38519;52.540;13.410;2023-11-19T04:23:11;45774.47;;;-146.17;100.00
52625;BME280;38519;52.540;13.410;2023-11-19T04:25:37;45770.50;;;-146.17;100.00
52625;BME280;38519;52.540;13.410;2023-11-19T04:28:02;45772.47;;;-146.17;100.00
52625;BME280;38519;52.540;13.410;2023-11-19T04:30:28;45800.16;;;-146.17;100.00
52625;BME280;38519;52.540;13.410;2023-11-19T04:32:53;45784.34;;;-146.17;100.00
52625;BME280;38519;52.540;13.410;2023-11-19T04:35:18;45780.38;;;-146.17;100.00
52625;BME280;38519;52.540;13.410;2023-11-19T04:37:44;45786.31;;;-146.17;100.00
52625;BME280;38519;52.540;13.410;2023-11-19T04:40:09;45772.47;;;-146.17;100.00
52625;BME280;38519;52.540;13.410;2023-11-19T04:42:36;45778.41;;;-146.17;100.00
52625;BME280;38519;52.540;13.410;2023-11-19T04:45:01;45788.28;;;-146.17;100.00
52625;BME280;38519;52.540;13.410;2023-11-19T04:47:27;45762.59;;;-146.17;100.00
52625;BME280;38519;52.540;13.410;2023-11-19T04:49:52;45782.38;;;-146.17;100.00
52625;BME280;38519;52.540;13.410;2023-11-19T04:52:18;45780.38;;;-146.17;100.00
52625;BME280;38519;52.540;13.410;2023-11-19T04:54:43;45794.22;;;-146.17;100.00
52625;BME280;38519;52.540;13.410;2023-11-19T04:57:09;45778.41;;;-146.17;100.00
52625;BME280;38519;52.540;13.410;2023-11-19T04:59:38;45754.69;;;-146.17;100.00
52625;BME280;38519;52.540;13.410;2023-11-19T05:02:04;45778.41;;;-146.17;100.00
52625;BME280;38519;52.540;13.410;2023-11-19T05:04:30;45800.16;;;-146.17;100.00
52625;BME280;38519;52.540;13.410;2023-11-19T05:06:55;45806.06;;;-146.17;100.00
52625;BME280;38519;52.540;13.410;2023-11-19T05:09:21;45808.06;;;-146.17;100.00
52625;BME280;38519;52.540;13.410;2023-11-19T05:11:46;45778.41;;;-146.17;100.00
52625;BME280;38519;52.540;13.410;2023-11-19T05:14:12;45780.38;;;-146.17;100.00
52625;BME280;38519;52.540;13.410;2023-11-19T05:16:40;45786.31;;;-146.17;100.00
52625;BME280;38519;52.540;13.410;2023-11-19T05:19:06;45788.28;;;-146.17;100.00
52625;BME280;38519;52.540;13.410;2023-11-19T05:21:32;45784.34;;;-146.17;100.00
52625;BME280;38519;52.540;13.410;2023-11-19T05:23:57;45782.38;;;-146.17;100.00
52625;BME280;38519;52.540;13.410;2023-11-19T05:26:23;45798.16;;;-146.17;100.00
52625;BME280;38519;52.540;13.410;2023-11-19T05:28:49;45784.34;;;-146.17;100.00
52625;BME280;38519;52.540;13.410;2023-11-19T05:31:15;45770.50;;;-146.17;100.00
52625;BME280;38519;52.540;13.410;2023-11-19T05:33:41;45798.16;;;-146.17;100.00
52625;BME280;38519;52.540;13.410;2023-11-19T05:36:06;45794.22;;;-146.17;100.00
52625;BME280;38519;52.540;13.410;2023-11-19T05:38:33;45788.28;;;-146.17;100.00
52625;BME280;38519;52.540;13.410;2023-11-19T05:40:59;45790.25;;;-146.17;100.00
52625;BME280;38519;52.540;13.410;2023-11-19T05:43:24;45813.97;;;-146.17;100.00
52625;BME280;38519;52.540;13.410;2023-11-19T05:45:50;45766.56;;;-146.17;100.00
52625;BME280;38519;52.540;13.410;2023-11-19T05:48:20;45774.47;;;-146.17;100.00
52625;BME280;38519;52.540;13.410;2023-11-19T05:50:46;45810.03;;;-146.17;100.00
52625;BME280;38519;52.540;13.410;2023-11-19T05:53:12;45802.13;;;-146.17;100.00
52625;BME280;38519;52.540;13.410;2023-11-19T05:55:40;45774.47;;;-146.17;100.00
52625;BME280;38519;52.540;13.410;2023-11-19T05:58:12;45806.06;;;-146.17;100.00
52625;BME280;38519;52.540;13.410;2023-11-19T06:00:38;45800.16;;;-146.17;100.00
52625;BME280;38519;52.540;13.410;2023-11-19T06:03:04;45772.47;;;-146.17;100.00
52625;BME280;38519;52.540;13.410;2023-11-19T06:05:30;45778.41;;;-146.17;100.00
52625;BME280;38519;52.540;13.410;2023-11-19T06:07:55;45786.31;;;-146.17;100.00
52625;BME280;38519;52.540;13.410;2023-11-19T06:10:22;45810.03;;;-146.17;100.00
52625;BME280;38519;52.540;13.410;2023-11-19T06:12:49;45808.06;;;-146.17;100.00
52625;BME280;38519;52.540;13.410;2023-11-19T06:15:21;45817.94;;;-146.17;100.00
52625;BME280;38519;52.540;13.410;2023-11-19T06:17:46;45819.91;;;-146.17;100.00
52625;BME280;38519;52.540;13.410;2023-11-19T06:20:12;45786.31;;;-146.17;100.00
52625;BME280;38519;52.540;13.410;2023-11-19T06:22:37;45794.22;;;-146.17;100.00
52625;BME280;38519;52.540;13.410;2023-11-19T06:25:02;45780.38;;;-146.17;100.00
52625;BME280;38519;52.540;13.410;2023-11-19T06:27:32;45813.97;;;-146.17;100.00
52625;BME280;38519;52.540;13.410;2023-11-19T06:29:57;45794.22;;;-146.17;100.00
52625;BME280;38519;52.540;13.410;2023-11-19T06:32:23;45808.06;;;-146.17;100.00
52625;BME280;38519;52.540;13.410;2023-11-19T06:34:48;45792.25;;;-146.17;100.00
52625;BME280;38519;52.540;13.410;2023-11-19T06:37:14;45827.81;;;-146.17;100.00
52625;BME280;38519;52.540;13.410;2023-11-19T06:39:41;45798.16;;;-146.17;100.00
52625;BME280;38519;52.540;13.410;2023-11-19T06:42:07;45823.88;;;-146.17;100.00
52625;BME280;38519;52.540;13.410;2023-11-19T06:44:32;45788.28;;;-146.17;100.00
52625;BME280;38519;52.540;13.410;2023-11-19T06:46:58;45802.13;;;-146.17;100.00
52625;BME280;38519;52.540;13.410;2023-11-19T06:49:24;45786.31;;;-146.17;100.00
52625;BME280;38519;52.540;13.410;2023-11-19T06:51:50;45772.47;;;-146.17;100.00
52625;BME280;38519;52.540;13.410;2023-11-19T06:54:15;45806.06;;;-146.17;100.00
52625;BME280;38519;52.540;13.410;2023-11-19T06:56:41;45800.16;;;-146.17;100.00
52625;BME280;38519;52.540;13.410;2023-11-19T06:59:06;45798.16;;;-146.17;100.00
52625;BME280;38519;52.540;13.410;2023-11-19T07:01:35;45802.13;;;-146.17;100.00
52625;BME280;38519;52.540;13.410;2023-11-19T07:04:01;45802.13;;;-146.17;100.00
52625;BME280;38519;52.540;13.410;2023-11-19T07:06:33;45800.16;;;-146.17;100.00
52625;BME280;38519;52.540;13.410;2023-11-19T07:08:59;45774.47;;;-146.17;100.00
52625;BME280;38519;52.540;13.410;2023-11-19T07:11:24;45780.38;;;-146.17;100.00
52625;BME280;38519;52.540;13.410;2023-11-19T07:13:49;45798.16;;;-146.17;100.00
52625;BME280;38519;52.540;13.410;2023-11-19T07:16:15;45792.25;;;-146.17;100.00
52625;BME280;38519;52.540;13.410;2023-11-19T07:18:40;45756.66;;;-146.17;100.00
52625;BME280;38519;52.540;13.410;2023-11-19T07:21:09;45798.16;;;-146.17;100.00
52625;BME280;38519;52.540;13.410;2023-11-19T07:23:35;45798.16;;;-146.17;100.00
52625;BME280;38519;52.540;13.410;2023-11-19T07:26:04;45792.25;;;-146.17;100.00
52625;BME280;38519;52.540;13.410;2023-11-19T07:28:29;45762.59;;;-146.17;100.00
52625;BME280;38519;52.540;13.410;2023-11-19T07:30:55;45768.53;;;-146.17;100.00
52625;BME280;38519;52.540;13.410;2023-11-19T07:33:21;45766.56;;;-146.17;100.00
52625;BME280;38519;52.540;13.410;2023-11-19T07:35:46;45756.66;;;-146.17;100.00
52625;BME280;38519;52.540;13.410;2023-11-19T07:38:12;45778.41;;;-146.17;100.00
52625;BME280;38519;52.540;13.410;2023-11-19T07:40:38;45758.66;;;-146.17;100.00
52625;BME280;38519;52.540;13.410;2023-11-19T07:43:04;45792.25;;;-146.17;100.00
52625;BME280;38519;52.540;13.410;2023-11-19T07:45:29;45770.50;;;-146.17;100.00
52625;BME280;38519;52.540;13.410;2023-11-19T07:47:54;45790.25;;;-146.17;100.00
52625;BME280;38519;52.540;13.410;2023-11-19T07:50:20;45762.59;;;-146.17;100.00
52625;BME280;38519;52.540;13.410;2023-11-19T07:52:45;45794.22;;;-146.17;100.00
52625;BME280;38519;52.540;13.410;2023-11-19T07:55:10;45768.53;;;-146.17;100.00
52625;BME280;38519;52.540;13.410;2023-11-19T07:57:36;45770.50;;;-146.17;100.00
52625;BME280;38519;52.540;13.410;2023-11-19T08:00:02;45740.84;;;-146.17;100.00
52625;BME280;38519;52.540;13.410;2023-11-19T08:02:28;45752.72;;;-146.17;100.00
52625;BME280;38519;52.540;13.410;2023-11-19T08:04:53;45760.63;;;-146.17;100.00
52625;BME280;38519;52.540;13.410;2023-11-19T08:07:20;45766.56;;;-146.17;100.00
52625;BME280;38519;52.540;13.410;2023-11-19T08:09:45;45764.56;;;-146.17;100.00
52625;BME280;38519;52.540;13.410;2023-11-19T08:12:11;45754.69;;;-146.17;100.00
52625;BME280;38519;52.540;13.410;2023-11-19T08:14:36;45746.78;;;-146.17;100.00
52625;BME280;38519;52.540;13.410;2023-11-19T08:17:02;45707.25;;;-146.17;100.00
52625;BME280;38519;52.540;13.410;2023-11-19T08:19:27;45782.38;;;-146.17;100.00
52625;BME280;38519;52.540;13.410;2023-11-19T08:21:52;45732.94;;;-146.17;100.00
52625;BME280;38519;52.540;13.410;2023-11-19T08:24:18;45734.94;;;-146.17;100.00
52625;BME280;38519;52.540;13.410;2023-11-19T08:26:43;45719.13;;;-146.17;100.00
52625;BME280;38519;52.540;13.410;2023-11-19T08:29:09;45705.28;;;-146.17;100.00
52625;BME280;38519;52.540;13.410;2023-11-19T08:31:34;45736.91;;;-146.17;100.00
52625;BME280;38519;52.540;13.410;2023-11-19T08:34:00;45732.94;;;-146.17;100.00
52625;BME280;38519;52.540;13.410;2023-11-19T08:36:25;45715.16;;;-146.17;100.00
52625;BME280;38519;52.540;13.410;2023-11-19T08:38:51;45677.59;;;-146.17;100.00
52625;BME280;38519;52.540;13.410;2023-11-19T08:41:16;45592.63;;;-146.17;100.00
52625;BME280;38519;52.540;13.410;2023-11-19T08:43:43;45505.66;;;-146.17;100.00
52625;BME280;38519;52.540;13.410;2023-11-19T08:46:11;45647.97;;;-146.17;100.00
52625;BME280;38519;52.540;13.410;2023-11-19T08:48:36;45667.72;;;-146.17;100.00
52625;BME280;38519;52.540;13.410;2023-11-19T08:51:01;45549.13;;;-146.17;100.00
52625;BME280;38519;52.540;13.410;2023-11-19T08:53:27;45489.84;;;-146.17;100.00
52625;BME280;38519;52.540;13.410;2023-11-19T08:55:52;45483.91;;;-146.17;100.00
52625;BME280;38519;52.540;13.410;2023-11-19T08:58:17;45485.91;;;-146.17;100.00
52625;BME280;38519;52.540;13.410;2023-11-19T09:00:43;45485.91;;;-146.17;100.00
52625;BME280;38519;52.540;13.410;2023-11-19T09:03:08;45499.72;;;-146.17;100.00
52625;BME280;38519;52.540;13.410;2023-11-19T09:05:34;45604.47;;;-146.17;100.00
52625;BME280;38519;52.540;13.410;2023-11-19T09:07:59;45584.72;;;-146.17;100.00
52625;BME280;38519;52.540;13.410;2023-11-19T09:10:24;45529.38;;;-146.17;100.00
52625;BME280;38519;52.540;13.410;2023-11-19T09:12:51;45523.44;;;-146.17;100.00
52625;BME280;38519;52.540;13.410;2023-11-19T09:15:16;45604.47;;;-146.17;100.00
52625;BME280;38519;52.540;13.410;2023-11-19T09:17:41;45448.34;;;-146.17;100.00
52625;BME280;38519;52.540;13.410;2023-11-19T09:20:08;45481.94;;;-146.17;100.00
52625;BME280;38519;52.540;13.410;2023-11-19T09:22:33;45470.09;;;-146.17;100.00
52625;BME280;38519;52.540;13.410;2023-11-19T09:24:59;45539.25;;;-146.17;100.00
52625;BME280;38519;52.540;13.410;2023-11-19T09:27:25;45596.56;;;-146.17;100.00
52625;BME280;38519;52.540;13.410;2023-11-19T09:29:51;45487.88;;;-146.17;100.00
52625;BME280;38519;52.540;13.410;2023-11-19T09:32:22;45497.75;;;-146.17;100.00
52625;BME280;38519;52.540;13.410;2023-11-19T09:34:48;45456.25;;;-146.17;100.00
52625;BME280;38519;52.540;13.410;2023-11-19T09:37:13;45432.53;;;-146.17;100.00
52625;BME280;38519;52.540;13.410;2023-11-19T09:39:38;45412.78;;;-146.17;100.00
52625;BME280;38519;52.540;13.410;2023-11-19T09:42:03;45393.00;;;-146.17;100.00
52625;BME280;38519;52.540;13.410;2023-11-19T09:44:29;45398.94;;;-146.17;100.00
52625;BME280;38519;52.540;13.410;2023-11-19T09:46:54;45379.19;;;-146.17;100.00
52625;BME280;38519;52.540;13.410;2023-11-19T09:49:21;45393.00;;;-146.17;100.00
52625;BME280;38519;52.540;13.410;2023-11-19T09:51:48;45353.47;;;-146.17;100.00
52625;BME280;38519;52.540;13.410;2023-11-19T09:54:14;45394.97;;;-146.17;100.00
52625;BME280;38519;52.540;13.410;2023-11-19T09:56:39;45343.59;;;-146.17;100.00
52625;BME280;38519;52.540;13.410;2023-11-19T09:59:06;45373.25;;;-146.17;100.00
52625;BME280;38519;52.540;13.410;2023-11-19T10:01:31;45345.56;;;-146.17;100.00
52625;BME280;38519;52.540;13.410;2023-11-19T10:03:57;45391.03;;;-146.17;100.00
52625;BME280;38519;52.540;13.410;2023-11-19T10:06:23;45367.31;;;-146.17;100.00
52625;BME280;38519;52.540;13.410;2023-11-19T10:08:52;45387.09;;;-146.17;100.00
52625;BME280;38519;52.540;13.410;2023-11-19T10:11:18;45349.53;;;-146.17;100.00
52625;BME280;38519;52.540;13.410;2023-11-19T10:13:43;45353.47;;;-146.17;100.00
52625;BME280;38519;52.540;13.410;2023-11-19T10:16:10;45361.38;;;-146.17;100.00
52625;BME280;38519;52.540;13.410;2023-11-19T10:18:37;45347.56;;;-146.17;100.00
52625;BME280;38519;52.540;13.410;2023-11-19T10:21:03;45323.84;;;-146.17;100.00
52625;BME280;38519;52.540;13.410;2023-11-19T10:23:28;45361.38;;;-146.17;100.00
52625;BME280;38519;52.540;13.410;2023-11-19T10:25:53;45373.25;;;-146.17;100.00
52625;BME280;38519;52.540;13.410;2023-11-19T10:28:18;45357.44;;;-146.17;100.00
52625;BME280;38519;52.540;13.410;2023-11-19T10:30:44;45394.97;;;-146.17;100.00
52625;BME280;38519;52.540;13.410;2023-11-19T10:35:56;45321.88;;;-146.17;100.00
52625;BME280;38519;52.540;13.410;2023-11-19T10:38:21;45266.53;;;-146.17;100.00
52625;BME280;38519;52.540;13.410;2023-11-19T10:40:47;45308.03;;;-146.17;100.00
52625;BME280;38519;52.540;13.410;2023-11-19T10:43:14;45290.25;;;-146.17;100.00
52625;BME280;38519;52.540;13.410;2023-11-19T10:45:39;45278.38;;;-146.17;100.00
52625;BME280;38519;52.540;13.410;2023-11-19T10:48:05;45288.25;;;-146.17;100.00
52625;BME280;38519;52.540;13.410;2023-11-19T10:50:36;45276.41;;;-146.17;100.00
52625;BME280;38519;52.540;13.410;2023-11-19T10:53:04;45286.28;;;-146.17;100.00
52625;BME280;38519;52.540;13.410;2023-11-19T10:55:30;45282.34;;;-146.17;100.00
52625;BME280;38519;52.540;13.410;2023-11-19T10:57:59;45296.16;;;-146.17;100.00
52625;BME280;38519;52.540;13.410;2023-11-19T11:00:25;45302.09;;;-146.17;100.00
52625;BME280;38519;52.540;13.410;2023-11-19T11:02:53;45260.59;;;-146.17;100.00
52625;BME280;38519;52.540;13.410;2023-11-19T11:05:20;45248.75;;;-146.17;100.00
52625;BME280;38519;52.540;13.410;2023-11-19T11:07:46;45306.06;;;-146.17;100.00
52625;BME280;38519;52.540;13.410;2023-11-19T11:10:13;45313.97;;;-146.17;100.00
52625;BME280;38519;52.540;13.410;2023-11-19T11:12:40;45246.75;;;-146.17;100.00
52625;BME280;38519;52.540;13.410;2023-11-19T11:15:06;45225.03;;;-146.17;100.00
52625;BME280;38519;52.540;13.410;2023-11-19T11:17:32;45211.19;;;-146.17;100.00
52625;BME280;38519;52.540;13.410;2023-11-19T11:19:58;45211.19;;;-146.17;100.00
52625;BME280;38519;52.540;13.410;2023-11-19T11:22:23;45232.94;;;-146.17;100.00
52625;BME280;38519;52.540;13.410;2023-11-19T11:24:55;45199.34;;;-146.17;100.00
52625;BME280;38519;52.540;13.410;2023-11-19T11:32:43;45195.38;;;-146.17;100.00
52625;BME280;38519;52.540;13.410;2023-11-19T11:35:17;45157.84;;;-146.17;100.00
52625;BME280;38519;52.540;13.410;2023-11-19T11:37:53;45171.66;;;-146.17;100.00
52625;BME280;38519;52.540;13.410;2023-11-19T11:40:21;45179.56;;;-146.17;100.00
52625;BME280;38519;52.540;13.410;2023-11-19T11:42:48;45187.47;;;-146.17;100.00
52625;BME280;38519;52.540;13.410;2023-11-19T11:45:17;45153.88;;;-146.17;100.00
52625;BME280;38519;52.540;13.410;2023-11-19T11:50:12;45151.91;;;-146.17;100.00
52625;BME280;38519;52.540;13.410;2023-11-19T11:55:27;45177.59;;;-146.17;100.00
52625;BME280;38519;52.540;13.410;2023-11-19T11:57:55;45173.66;;;-146.17;100.00
52625;BME280;38519;52.540;13.410;2023-11-19T12:00:27;45197.34;;;-146.17;100.00
52625;BME280;38519;52.540;13.410;2023-11-19T12:03:01;45179.56;;;-146.17;100.00
52625;BME280;38519;52.540;13.410;2023-11-19T12:05:27;45197.34;;;-146.17;100.00
52625;BME280;38519;52.540;13.410;2023-11-19T12:07:57;45177.59;;;-146.17;100.00
52625;BME280;38519;52.540;13.410;2023-11-19T12:10:25;45197.34;;;-146.17;100.00
52625;BME280;38519;52.540;13.410;2023-11-19T12:12:56;45193.41;;;-146.17;100.00
52625;BME280;38519;52.540;13.410;2023-11-19T12:15:23;45195.38;;;-146.17;100.00
52625;BME280;38519;52.540;13.410;2023-11-19T12:17:50;45185.50;;;-146.17;100.00
52625;BME280;38519;52.540;13.410;2023-11-19T12:20:18;45183.53;;;-146.17;100.00
52625;BME280;38519;52.540;13.410;2023-11-19T12:22:45;45181.56;;;-146.17;100.00
52625;BME280;38519;52.540;13.410;2023-11-19T12:25:11;45215.16;;;-146.17;100.00
52625;BME280;38519;52.540;13.410;2023-11-19T12:27:47;45197.34;;;-146.17;100.00
52625;BME280;38519;52.540;13.410;2023-11-19T12:30:17;45189.44;;;-146.17;100.00
52625;BME280;38519;52.540;13.410;2023-11-19T12:32:44;45213.16;;;-146.17;100.00